createdAt,value
2017-10-24T00:00:35.283Z,0
2017-10-24T00:01:15.731Z,0
2017-10-24T00:01:56.175Z,0
2017-10-24T00:02:36.643Z,0
2017-10-24T00:03:17.094Z,0
2017-10-24T00:03:57.539Z,0
2017-10-24T00:04:38.000Z,0
2017-10-24T00:05:18.453Z,0
2017-10-24T00:05:58.915Z,0
2017-10-24T00:06:39.364Z,0
2017-10-24T00:07:19.819Z,0
2017-10-24T00:08:00.273Z,0
2017-10-24T00:08:40.729Z,0
2017-10-24T00:09:21.170Z,0
2017-10-24T00:10:01.629Z,0
2017-10-24T00:10:42.083Z,0
2017-10-24T00:11:22.553Z,0
2017-10-24T00:12:03.006Z,0
2017-10-24T00:12:43.467Z,0
2017-10-24T00:13:23.921Z,0
2017-10-24T00:14:04.377Z,0
2017-10-24T00:14:44.835Z,0
2017-10-24T00:15:25.282Z,0
2017-10-24T00:16:05.728Z,0
2017-10-24T00:16:46.179Z,0
2017-10-24T00:17:26.619Z,0
2017-10-24T00:18:07.065Z,0
2017-10-24T00:18:47.515Z,0
2017-10-24T00:19:27.998Z,0
2017-10-24T00:20:08.444Z,0
2017-10-24T00:20:48.908Z,0
2017-10-24T00:21:29.352Z,0
2017-10-24T00:22:09.806Z,0
2017-10-24T00:22:50.263Z,0
2017-10-24T00:23:30.712Z,0
2017-10-24T00:24:11.161Z,0
2017-10-24T00:24:51.606Z,0
2017-10-24T00:25:32.055Z,0
2017-10-24T00:26:12.527Z,0
2017-10-24T00:26:52.973Z,0
2017-10-24T00:27:33.429Z,0
2017-10-24T00:28:13.901Z,0
2017-10-24T00:28:54.336Z,0
2017-10-24T00:29:34.797Z,0
2017-10-24T00:30:15.250Z,0
2017-10-24T00:30:55.699Z,0
2017-10-24T00:31:36.140Z,0
2017-10-24T00:32:16.600Z,0
2017-10-24T00:32:57.056Z,0
2017-10-24T00:33:37.507Z,0
2017-10-24T00:34:17.951Z,0
2017-10-24T00:34:58.400Z,0
2017-10-24T00:35:38.859Z,0
2017-10-24T00:36:19.316Z,0
2017-10-24T00:36:59.761Z,0
2017-10-24T00:37:40.225Z,0
2017-10-24T00:38:20.686Z,0
2017-10-24T00:39:01.136Z,0
2017-10-24T00:39:41.595Z,0
2017-10-24T00:40:22.048Z,0
2017-10-24T00:41:02.500Z,0
2017-10-24T00:41:42.948Z,0
2017-10-24T00:42:23.419Z,0
2017-10-24T00:43:03.867Z,0
2017-10-24T00:43:44.323Z,0
2017-10-24T00:44:24.780Z,0
2017-10-24T00:45:05.226Z,0
2017-10-24T00:45:45.670Z,0
2017-10-24T00:46:26.126Z,0
2017-10-24T00:47:06.582Z,0
2017-10-24T00:47:47.030Z,0
2017-10-24T00:48:27.490Z,0
2017-10-24T00:49:07.945Z,0
2017-10-24T00:49:48.404Z,0
2017-10-24T00:50:28.861Z,0
2017-10-24T00:51:09.320Z,0
2017-10-24T00:51:49.767Z,0
2017-10-24T00:52:30.243Z,0
2017-10-24T00:53:10.680Z,0
2017-10-24T00:53:51.135Z,0
2017-10-24T00:54:31.572Z,0
2017-10-24T00:55:12.025Z,0
2017-10-24T00:55:52.485Z,0
2017-10-24T00:56:32.941Z,0
2017-10-24T00:57:13.394Z,0
2017-10-24T00:57:53.864Z,0
2017-10-24T00:58:34.309Z,0
2017-10-24T00:59:14.755Z,0
2017-10-24T00:59:55.202Z,0
2017-10-24T01:00:35.654Z,0
2017-10-24T01:01:16.111Z,0
2017-10-24T01:01:56.549Z,0
2017-10-24T01:02:37.009Z,0
2017-10-24T01:03:17.460Z,0
2017-10-24T01:03:57.925Z,0
2017-10-24T01:04:38.380Z,0
2017-10-24T01:05:18.831Z,0
2017-10-24T01:05:59.293Z,0
2017-10-24T01:06:39.740Z,0
2017-10-24T01:07:20.186Z,0
2017-10-24T01:08:00.650Z,0
2017-10-24T01:08:41.105Z,0
2017-10-24T01:09:21.555Z,0
2017-10-24T01:10:02.012Z,0
2017-10-24T01:10:42.468Z,0
2017-10-24T01:11:22.925Z,0
2017-10-24T01:12:03.388Z,0
2017-10-24T01:12:43.841Z,0
2017-10-24T01:13:24.305Z,0
2017-10-24T01:14:04.762Z,0
2017-10-24T01:14:45.222Z,0
2017-10-24T01:15:25.682Z,0
2017-10-24T01:16:06.146Z,0
2017-10-24T01:16:46.624Z,0
2017-10-24T01:17:27.085Z,0
2017-10-24T01:18:07.544Z,0
2017-10-24T01:18:48.007Z,0
2017-10-24T01:19:28.459Z,0
2017-10-24T01:20:08.924Z,0
2017-10-24T01:20:49.369Z,0
2017-10-24T01:21:29.818Z,0
2017-10-24T01:22:10.270Z,0
2017-10-24T01:22:50.720Z,0
2017-10-24T01:23:31.168Z,0
2017-10-24T01:24:11.632Z,0
2017-10-24T01:24:52.085Z,0
2017-10-24T01:25:32.542Z,0
2017-10-24T01:26:12.994Z,0
2017-10-24T01:26:53.441Z,0
2017-10-24T01:27:33.892Z,0
2017-10-24T01:28:14.357Z,0
2017-10-24T01:28:54.806Z,0
2017-10-24T01:29:35.252Z,0
2017-10-24T01:30:15.715Z,0
2017-10-24T01:30:56.165Z,0
2017-10-24T01:31:36.638Z,0
2017-10-24T01:32:17.119Z,0
2017-10-24T01:32:57.571Z,0
2017-10-24T01:33:38.014Z,0
2017-10-24T01:34:18.476Z,0
2017-10-24T01:34:58.934Z,0
2017-10-24T01:35:39.387Z,0
2017-10-24T01:36:19.841Z,0
2017-10-24T01:37:00.301Z,0
2017-10-24T01:37:40.759Z,0
2017-10-24T01:38:21.214Z,0
2017-10-24T01:39:01.655Z,0
2017-10-24T01:39:42.108Z,0
2017-10-24T01:40:23.055Z,0
2017-10-24T01:41:03.506Z,0
2017-10-24T01:41:43.952Z,0
2017-10-24T01:42:24.403Z,0
2017-10-24T01:43:04.856Z,0
2017-10-24T01:43:45.314Z,0
2017-10-24T01:44:25.769Z,0
2017-10-24T01:45:06.224Z,0
2017-10-24T01:45:46.681Z,0
2017-10-24T01:46:27.136Z,0
2017-10-24T01:47:07.607Z,0
2017-10-24T01:47:48.048Z,0
2017-10-24T01:48:28.494Z,0
2017-10-24T01:49:08.942Z,0
2017-10-24T01:49:49.395Z,0
2017-10-24T01:50:29.847Z,0
2017-10-24T01:51:10.298Z,0
2017-10-24T01:51:50.756Z,0
2017-10-24T01:52:31.213Z,0
2017-10-24T01:53:11.667Z,0
2017-10-24T01:53:52.126Z,0
2017-10-24T01:54:32.572Z,0
2017-10-24T01:55:13.029Z,0
2017-10-24T01:55:53.481Z,0
2017-10-24T01:56:33.945Z,0
2017-10-24T01:57:14.400Z,0
2017-10-24T01:57:54.846Z,0
2017-10-24T01:58:35.323Z,0
2017-10-24T01:59:15.771Z,0
2017-10-24T01:59:56.224Z,0
2017-10-24T02:00:36.684Z,0
2017-10-24T02:01:17.127Z,0
2017-10-24T02:01:57.577Z,0
2017-10-24T02:02:38.036Z,0
2017-10-24T02:03:18.488Z,0
2017-10-24T02:03:58.952Z,0
2017-10-24T02:04:39.363Z,0
2017-10-24T02:05:19.819Z,0
2017-10-24T02:06:00.274Z,0
2017-10-24T02:06:40.730Z,0
2017-10-24T02:07:21.183Z,0
2017-10-24T02:08:01.641Z,0
2017-10-24T02:08:42.103Z,0
2017-10-24T02:09:22.561Z,0
2017-10-24T02:10:03.005Z,0
2017-10-24T02:10:43.450Z,0
2017-10-24T02:11:23.899Z,0
2017-10-24T02:12:04.344Z,0
2017-10-24T02:12:44.804Z,0
2017-10-24T02:13:25.246Z,0
2017-10-24T02:14:05.703Z,0
2017-10-24T02:14:46.150Z,0
2017-10-24T02:15:26.610Z,0
2017-10-24T02:16:07.056Z,0
2017-10-24T02:16:47.517Z,0
2017-10-24T02:17:27.956Z,0
2017-10-24T02:18:08.407Z,0
2017-10-24T02:18:48.859Z,0
2017-10-24T02:19:29.308Z,0
2017-10-24T02:20:09.771Z,0
2017-10-24T02:20:50.218Z,0
2017-10-24T02:21:30.688Z,0
2017-10-24T02:22:11.162Z,0
2017-10-24T02:22:51.614Z,0
2017-10-24T02:23:32.073Z,0
2017-10-24T02:24:12.544Z,0
2017-10-24T02:24:52.980Z,0
2017-10-24T02:25:33.429Z,0
2017-10-24T02:26:13.891Z,0
2017-10-24T02:26:54.345Z,0
2017-10-24T02:27:34.806Z,0
2017-10-24T02:28:15.261Z,0
2017-10-24T02:28:55.715Z,0
2017-10-24T02:29:36.162Z,0
2017-10-24T02:30:16.626Z,0
2017-10-24T02:30:57.074Z,0
2017-10-24T02:31:37.521Z,0
2017-10-24T02:32:17.983Z,0
2017-10-24T02:32:58.430Z,0
2017-10-24T02:33:38.886Z,0
2017-10-24T02:34:19.334Z,0
2017-10-24T02:34:59.788Z,0
2017-10-24T02:35:40.251Z,0
2017-10-24T02:36:20.711Z,0
2017-10-24T02:37:01.170Z,0
2017-10-24T02:37:41.624Z,0
2017-10-24T02:38:22.065Z,0
2017-10-24T02:39:02.511Z,0
2017-10-24T02:39:42.966Z,0
2017-10-24T02:40:23.409Z,0
2017-10-24T02:41:03.858Z,0
2017-10-24T02:41:44.309Z,0
2017-10-24T02:42:24.757Z,0
2017-10-24T02:43:05.212Z,0
2017-10-24T02:43:45.676Z,0
2017-10-24T02:44:26.132Z,0
2017-10-24T02:45:06.598Z,0
2017-10-24T02:45:47.050Z,0
2017-10-24T02:46:27.508Z,0
2017-10-24T02:47:07.969Z,0
2017-10-24T02:47:48.435Z,0
2017-10-24T02:48:28.884Z,0
2017-10-24T02:49:09.332Z,0
2017-10-24T02:49:49.785Z,0
2017-10-24T02:50:30.232Z,0
2017-10-24T02:51:10.683Z,0
2017-10-24T02:51:51.135Z,0
2017-10-24T02:52:31.583Z,0
2017-10-24T02:53:12.037Z,0
2017-10-24T02:53:52.495Z,0
2017-10-24T02:54:32.954Z,0
2017-10-24T02:55:13.402Z,0
2017-10-24T02:57:11.083Z,0
2017-10-24T02:57:51.539Z,0
2017-10-24T02:58:31.987Z,0
2017-10-24T02:59:12.444Z,0
2017-10-24T02:59:52.900Z,0
2017-10-24T03:00:33.338Z,0
2017-10-24T03:01:13.788Z,0
2017-10-24T03:01:54.251Z,0
2017-10-24T03:02:34.711Z,0
2017-10-24T03:03:15.173Z,0
2017-10-24T03:03:55.624Z,0
2017-10-24T03:04:36.080Z,0
2017-10-24T03:05:16.530Z,0
2017-10-24T03:05:56.980Z,0
2017-10-24T03:06:37.434Z,0
2017-10-24T03:07:17.879Z,0
2017-10-24T03:07:58.333Z,0
2017-10-24T03:08:38.782Z,0
2017-10-24T03:09:19.235Z,0
2017-10-24T03:09:59.686Z,0
2017-10-24T03:10:40.151Z,0
2017-10-24T03:11:20.620Z,0
2017-10-24T03:12:01.066Z,0
2017-10-24T03:12:41.508Z,0
2017-10-24T03:13:21.958Z,0
2017-10-24T03:14:02.413Z,0
2017-10-24T03:14:42.864Z,0
2017-10-24T03:15:23.316Z,0
2017-10-24T03:16:03.757Z,0
2017-10-24T03:16:44.191Z,0
2017-10-24T03:17:24.641Z,0
2017-10-24T03:18:05.097Z,0
2017-10-24T03:18:45.547Z,0
2017-10-24T03:19:25.997Z,0
2017-10-24T03:20:06.455Z,0
2017-10-24T03:20:46.896Z,0
2017-10-24T03:21:27.342Z,0
2017-10-24T03:22:07.795Z,0
2017-10-24T03:22:48.254Z,0
2017-10-24T03:23:28.713Z,0
2017-10-24T03:24:09.172Z,0
2017-10-24T03:24:49.630Z,0
2017-10-24T03:25:30.081Z,0
2017-10-24T03:26:10.549Z,0
2017-10-24T03:26:50.999Z,0
2017-10-24T03:27:31.445Z,0
2017-10-24T03:28:11.890Z,0
2017-10-24T03:28:52.335Z,0
2017-10-24T03:29:32.792Z,0
2017-10-24T03:30:13.259Z,0
2017-10-24T03:30:53.716Z,0
2017-10-24T03:31:34.168Z,0
2017-10-24T03:32:14.628Z,0
2017-10-24T03:32:55.085Z,4
2017-10-24T03:33:35.533Z,4
2017-10-24T03:34:15.980Z,4
2017-10-24T03:34:56.408Z,4
2017-10-24T03:35:36.869Z,4
2017-10-24T03:36:17.314Z,4
2017-10-24T03:36:57.761Z,4
2017-10-24T03:37:38.200Z,0
2017-10-24T03:38:18.652Z,4
2017-10-24T03:38:59.092Z,4
2017-10-24T03:39:39.547Z,0
2017-10-24T03:40:19.978Z,0
2017-10-24T03:41:00.419Z,4
2017-10-24T03:41:40.875Z,4
2017-10-24T03:42:21.323Z,4
2017-10-24T03:43:01.778Z,0
2017-10-24T03:43:42.224Z,0
2017-10-24T03:44:22.681Z,0
2017-10-24T03:45:03.136Z,0
2017-10-24T03:45:43.600Z,0
2017-10-24T03:46:24.033Z,0
2017-10-24T03:47:04.485Z,0
2017-10-24T03:47:44.943Z,0
2017-10-24T03:48:25.396Z,0
2017-10-24T03:49:05.850Z,4
2017-10-24T03:49:46.298Z,4
2017-10-24T03:50:26.739Z,20
2017-10-24T03:51:07.188Z,16
2017-10-24T03:51:47.652Z,16
2017-10-24T03:52:28.105Z,16
2017-10-24T03:53:08.556Z,0
2017-10-24T03:53:49.015Z,0
2017-10-24T03:54:29.460Z,0
2017-10-24T03:55:09.971Z,0
2017-10-24T03:55:50.426Z,0
2017-10-24T03:56:30.883Z,0
2017-10-24T03:57:11.367Z,0
2017-10-24T03:57:51.820Z,0
2017-10-24T03:58:32.273Z,0
2017-10-24T03:59:12.713Z,0
2017-10-24T03:59:53.170Z,0
2017-10-24T04:00:33.635Z,0
2017-10-24T04:01:14.059Z,0
2017-10-24T04:01:54.494Z,0
2017-10-24T04:02:34.944Z,0
2017-10-24T04:03:15.391Z,0
2017-10-24T04:03:55.854Z,0
2017-10-24T04:04:36.275Z,0
2017-10-24T04:05:16.685Z,0
2017-10-24T04:05:57.077Z,0
2017-10-24T04:06:37.512Z,0
2017-10-24T04:07:17.973Z,0
2017-10-24T04:07:58.438Z,0
2017-10-24T04:08:38.891Z,0
2017-10-24T04:09:19.351Z,0
2017-10-24T04:09:59.805Z,0
2017-10-24T04:10:40.258Z,0
2017-10-24T04:11:20.706Z,0
2017-10-24T04:12:01.150Z,0
2017-10-24T04:12:41.599Z,0
2017-10-24T04:13:22.045Z,0
2017-10-24T04:14:02.504Z,0
2017-10-24T04:14:42.974Z,0
2017-10-24T04:15:23.430Z,0
2017-10-24T04:16:03.873Z,0
2017-10-24T04:16:44.330Z,0
2017-10-24T04:17:24.789Z,0
2017-10-24T04:18:05.243Z,0
2017-10-24T04:18:45.696Z,0
2017-10-24T04:19:26.147Z,0
2017-10-24T04:20:06.617Z,0
2017-10-24T04:20:47.096Z,0
2017-10-24T04:21:27.550Z,0
2017-10-24T04:22:08.001Z,0
2017-10-24T04:22:48.456Z,0
2017-10-24T04:23:28.913Z,0
2017-10-24T04:24:09.367Z,0
2017-10-24T04:24:49.835Z,0
2017-10-24T04:25:30.291Z,0
2017-10-24T04:26:10.738Z,0
2017-10-24T04:26:51.194Z,0
2017-10-24T04:27:31.657Z,0
2017-10-24T04:28:12.094Z,0
2017-10-24T04:28:52.543Z,0
2017-10-24T04:29:32.991Z,0
2017-10-24T04:30:13.432Z,0
2017-10-24T04:30:53.882Z,0
2017-10-24T04:31:34.335Z,0
2017-10-24T04:32:14.790Z,0
2017-10-24T04:32:55.244Z,0
2017-10-24T04:33:35.692Z,0
2017-10-24T04:34:16.146Z,0
2017-10-24T04:34:56.606Z,0
2017-10-24T04:35:37.066Z,0
2017-10-24T04:36:17.508Z,0
2017-10-24T04:36:57.954Z,0
2017-10-24T04:37:38.409Z,0
2017-10-24T04:38:18.867Z,0
2017-10-24T04:38:59.331Z,0
2017-10-24T04:39:39.780Z,0
2017-10-24T04:40:20.237Z,0
2017-10-24T04:41:00.694Z,0
2017-10-24T04:41:41.151Z,0
2017-10-24T04:42:21.603Z,0
2017-10-24T04:43:02.063Z,0
2017-10-24T04:43:42.515Z,0
2017-10-24T04:44:22.975Z,0
2017-10-24T04:45:03.438Z,0
2017-10-24T04:45:43.889Z,0
2017-10-24T04:46:24.342Z,0
2017-10-24T04:47:04.791Z,0
2017-10-24T04:47:45.247Z,0
2017-10-24T04:48:25.696Z,0
2017-10-24T04:49:06.146Z,0
2017-10-24T04:49:46.605Z,0
2017-10-24T04:50:27.068Z,0
2017-10-24T04:51:07.526Z,0
2017-10-24T04:51:47.982Z,0
2017-10-24T04:52:28.432Z,0
2017-10-24T04:53:08.889Z,0
2017-10-24T04:53:49.344Z,0
2017-10-24T04:54:29.794Z,0
2017-10-24T04:55:10.238Z,0
2017-10-24T04:55:50.682Z,0
2017-10-24T04:56:31.129Z,0
2017-10-24T04:57:11.577Z,0
2017-10-24T04:57:52.043Z,0
2017-10-24T04:58:32.554Z,0
2017-10-24T04:59:13.005Z,0
2017-10-24T04:59:53.462Z,0
2017-10-24T05:00:33.915Z,0
2017-10-24T05:01:14.375Z,0
2017-10-24T05:01:54.822Z,0
2017-10-24T05:02:35.277Z,0
2017-10-24T05:03:15.732Z,0
2017-10-24T05:03:56.174Z,0
2017-10-24T05:04:36.631Z,0
2017-10-24T05:05:17.083Z,0
2017-10-24T05:05:57.531Z,0
2017-10-24T05:06:37.975Z,0
2017-10-24T05:07:18.432Z,0
2017-10-24T05:07:58.873Z,0
2017-10-24T05:08:39.324Z,0
2017-10-24T05:09:19.782Z,0
2017-10-24T05:10:00.235Z,0
2017-10-24T05:10:40.687Z,0
2017-10-24T05:11:21.142Z,0
2017-10-24T05:12:01.607Z,0
2017-10-24T05:12:42.067Z,0
2017-10-24T05:13:22.523Z,0
2017-10-24T05:14:02.973Z,0
2017-10-24T05:14:43.419Z,0
2017-10-24T05:15:23.865Z,0
2017-10-24T05:16:04.307Z,0
2017-10-24T05:16:44.757Z,0
2017-10-24T05:17:25.207Z,0
2017-10-24T05:18:05.659Z,0
2017-10-24T05:18:46.113Z,0
2017-10-24T05:19:26.589Z,0
2017-10-24T05:20:07.045Z,0
2017-10-24T05:20:47.503Z,0
2017-10-24T05:21:27.956Z,0
2017-10-24T05:22:08.404Z,0
2017-10-24T05:22:48.861Z,0
2017-10-24T05:23:29.402Z,0
2017-10-24T05:24:09.891Z,0
2017-10-24T05:24:50.353Z,0
2017-10-24T05:25:30.803Z,0
2017-10-24T05:26:11.258Z,0
2017-10-24T05:26:51.717Z,0
2017-10-24T05:27:32.164Z,0
2017-10-24T05:28:12.618Z,0
2017-10-24T05:28:53.069Z,0
2017-10-24T05:29:33.525Z,0
2017-10-24T05:30:13.991Z,0
2017-10-24T05:30:54.449Z,0
2017-10-24T05:31:34.898Z,0
2017-10-24T05:32:15.352Z,0
2017-10-24T05:32:55.816Z,0
2017-10-24T05:33:36.255Z,0
2017-10-24T05:34:16.701Z,0
2017-10-24T05:34:57.148Z,0
2017-10-24T05:35:37.598Z,0
2017-10-24T05:36:18.041Z,0
2017-10-24T05:36:58.494Z,0
2017-10-24T05:37:38.943Z,0
2017-10-24T05:38:19.401Z,0
2017-10-24T05:38:59.852Z,0
2017-10-24T05:39:40.315Z,0
2017-10-24T05:40:20.758Z,0
2017-10-24T05:41:01.208Z,0
2017-10-24T05:41:41.673Z,0
2017-10-24T05:42:22.128Z,0
2017-10-24T05:43:02.580Z,0
2017-10-24T05:43:43.036Z,0
2017-10-24T05:44:23.488Z,0
2017-10-24T05:45:03.947Z,0
2017-10-24T05:45:44.421Z,0
2017-10-24T05:46:24.900Z,0
2017-10-24T05:47:05.347Z,0
2017-10-24T05:47:45.797Z,0
2017-10-24T05:48:26.243Z,0
2017-10-24T05:49:06.694Z,0
2017-10-24T05:49:47.144Z,0
2017-10-24T05:50:27.639Z,0
2017-10-24T05:51:08.093Z,0
2017-10-24T05:51:48.546Z,4
2017-10-24T05:52:29.009Z,4
2017-10-24T05:53:09.454Z,4
2017-10-24T05:53:49.907Z,4
2017-10-24T05:54:30.357Z,4
2017-10-24T05:55:10.826Z,0
2017-10-24T05:55:51.278Z,0
2017-10-24T05:56:31.730Z,4
2017-10-24T05:57:12.176Z,4
2017-10-24T05:57:52.632Z,4
2017-10-24T05:58:33.094Z,4
2017-10-24T05:59:13.544Z,8
2017-10-24T05:59:54.004Z,4
2017-10-24T06:00:34.444Z,4
2017-10-24T06:01:14.901Z,4
2017-10-24T06:01:55.360Z,4
2017-10-24T06:02:35.822Z,8
2017-10-24T06:03:16.262Z,8
2017-10-24T06:03:56.716Z,8
2017-10-24T06:04:37.163Z,8
2017-10-24T06:05:17.621Z,8
2017-10-24T06:05:58.074Z,8
2017-10-24T06:06:38.527Z,8
2017-10-24T06:07:18.974Z,8
2017-10-24T06:07:59.434Z,12
2017-10-24T06:08:39.892Z,8
2017-10-24T06:09:20.341Z,8
2017-10-24T06:10:00.799Z,8
2017-10-24T06:10:41.253Z,12
2017-10-24T06:11:21.706Z,8
2017-10-24T06:12:02.170Z,8
2017-10-24T06:12:42.622Z,8
2017-10-24T06:13:23.092Z,8
2017-10-24T06:14:03.533Z,8
2017-10-24T06:14:43.992Z,8
2017-10-24T06:15:24.427Z,8
2017-10-24T06:16:04.882Z,8
2017-10-24T06:16:45.343Z,8
2017-10-24T06:17:25.802Z,12
2017-10-24T06:18:06.260Z,12
2017-10-24T06:18:46.710Z,12
2017-10-24T06:19:27.166Z,12
2017-10-24T06:20:07.617Z,8
2017-10-24T06:20:48.066Z,8
2017-10-24T06:21:28.509Z,12
2017-10-24T06:22:08.956Z,12
2017-10-24T06:22:49.408Z,12
2017-10-24T06:23:29.861Z,12
2017-10-24T06:24:10.305Z,16
2017-10-24T06:24:50.757Z,12
2017-10-24T06:25:31.209Z,12
2017-10-24T06:26:11.655Z,12
2017-10-24T06:26:52.094Z,12
2017-10-24T06:27:32.553Z,12
2017-10-24T06:28:13.008Z,16
2017-10-24T06:28:53.471Z,16
2017-10-24T06:29:33.922Z,16
2017-10-24T06:30:14.376Z,16
2017-10-24T06:30:54.838Z,16
2017-10-24T06:31:35.287Z,16
2017-10-24T06:32:15.734Z,16
2017-10-24T06:32:56.192Z,16
2017-10-24T06:33:36.647Z,20
2017-10-24T06:34:17.119Z,20
2017-10-24T06:34:57.573Z,20
2017-10-24T06:35:38.017Z,24
2017-10-24T06:36:18.467Z,20
2017-10-24T06:36:58.911Z,24
2017-10-24T06:37:39.365Z,24
2017-10-24T06:38:19.821Z,28
2017-10-24T06:39:00.271Z,28
2017-10-24T06:41:33.295Z,36
2017-10-24T06:42:13.755Z,40
2017-10-24T06:42:54.199Z,40
2017-10-24T06:43:34.663Z,44
2017-10-24T06:44:15.123Z,48
2017-10-24T06:44:55.567Z,52
2017-10-24T06:45:36.017Z,56
2017-10-24T06:46:16.451Z,56
2017-10-24T06:46:56.897Z,64
2017-10-24T06:47:37.346Z,64
2017-10-24T06:48:17.801Z,68
2017-10-24T06:48:58.341Z,72
2017-10-24T06:49:38.789Z,72
2017-10-24T06:50:19.233Z,76
2017-10-24T06:50:59.691Z,76
2017-10-24T06:51:40.136Z,80
2017-10-24T06:52:20.574Z,80
2017-10-24T06:53:01.001Z,88
2017-10-24T06:53:41.452Z,92
2017-10-24T06:54:21.928Z,100
2017-10-24T06:55:02.393Z,104
2017-10-24T06:55:42.853Z,104
2017-10-24T06:56:23.299Z,108
2017-10-24T06:57:03.746Z,108
2017-10-24T06:57:44.199Z,112
2017-10-24T06:58:24.649Z,112
2017-10-24T06:59:05.131Z,108
2017-10-24T06:59:45.635Z,108
2017-10-24T07:00:26.080Z,100
2017-10-24T07:01:06.561Z,96
2017-10-24T07:03:04.312Z,84
2017-10-24T07:03:44.778Z,80
2017-10-24T07:04:25.241Z,80
2017-10-24T07:05:05.733Z,80
2017-10-24T07:05:46.182Z,84
2017-10-24T07:06:26.778Z,84
2017-10-24T07:07:07.226Z,88
2017-10-24T07:07:47.685Z,88
2017-10-24T07:08:28.196Z,88
2017-10-24T07:09:08.658Z,80
2017-10-24T07:09:49.116Z,88
2017-10-24T07:10:29.648Z,88
2017-10-24T07:11:10.243Z,92
2017-10-24T07:11:50.728Z,92
2017-10-24T07:12:31.182Z,100
2017-10-24T07:13:11.654Z,104
2017-10-24T07:13:52.082Z,112
2017-10-24T07:14:32.537Z,112
2017-10-24T07:15:12.992Z,116
2017-10-24T07:15:53.451Z,116
2017-10-24T07:16:33.886Z,120
2017-10-24T07:17:14.370Z,124
2017-10-24T07:17:54.809Z,124
2017-10-24T07:18:35.262Z,128
2017-10-24T07:19:15.704Z,132
2017-10-24T07:19:56.169Z,132
2017-10-24T07:20:36.604Z,140
2017-10-24T07:21:17.043Z,144
2017-10-24T07:21:57.501Z,148
2017-10-24T07:22:37.957Z,148
2017-10-24T07:23:18.442Z,156
2017-10-24T07:23:58.867Z,156
2017-10-24T07:24:39.320Z,160
2017-10-24T07:25:19.772Z,164
2017-10-24T07:26:00.255Z,172
2017-10-24T07:26:40.704Z,176
2017-10-24T07:27:21.169Z,192
2017-10-24T07:28:01.617Z,192
2017-10-24T07:28:42.094Z,188
2017-10-24T07:29:22.627Z,184
2017-10-24T07:30:03.090Z,176
2017-10-24T07:30:43.530Z,172
2017-10-24T07:31:23.994Z,168
2017-10-24T07:32:04.448Z,164
2017-10-24T07:32:44.970Z,156
2017-10-24T07:33:25.494Z,156
2017-10-24T07:34:05.945Z,156
2017-10-24T07:34:46.397Z,152
2017-10-24T07:35:26.851Z,152
2017-10-24T07:36:07.312Z,152
2017-10-24T07:36:47.753Z,156
2017-10-24T07:37:28.272Z,156
2017-10-24T07:38:08.719Z,160
2017-10-24T07:38:49.173Z,172
2017-10-24T07:39:29.715Z,188
2017-10-24T07:40:10.190Z,208
2017-10-24T07:40:50.622Z,224
2017-10-24T07:41:31.080Z,240
2017-10-24T07:42:11.513Z,256
2017-10-24T07:42:51.965Z,268
2017-10-24T07:43:32.405Z,268
2017-10-24T07:44:12.857Z,268
2017-10-24T07:44:53.309Z,260
2017-10-24T07:45:33.758Z,244
2017-10-24T07:46:14.197Z,244
2017-10-24T07:46:54.655Z,248
2017-10-24T07:47:35.102Z,248
2017-10-24T07:48:15.562Z,252
2017-10-24T07:48:56.021Z,256
2017-10-24T07:49:36.469Z,260
2017-10-24T07:50:16.926Z,256
2017-10-24T07:50:57.383Z,264
2017-10-24T07:51:37.836Z,264
2017-10-24T07:52:18.286Z,256
2017-10-24T07:52:58.723Z,252
2017-10-24T07:53:39.185Z,256
2017-10-24T07:54:19.643Z,256
2017-10-24T07:55:00.105Z,248
2017-10-24T07:55:40.564Z,256
2017-10-24T07:56:21.020Z,244
2017-10-24T07:57:01.483Z,228
2017-10-24T07:57:41.931Z,224
2017-10-24T07:58:22.380Z,208
2017-10-24T07:59:02.837Z,208
2017-10-24T07:59:43.280Z,212
2017-10-24T08:00:23.726Z,212
2017-10-24T08:01:04.168Z,208
2017-10-24T08:01:44.623Z,212
2017-10-24T08:02:25.068Z,216
2017-10-24T08:03:05.510Z,228
2017-10-24T08:03:45.959Z,224
2017-10-24T08:04:26.409Z,232
2017-10-24T08:05:06.894Z,228
2017-10-24T08:05:47.339Z,220
2017-10-24T08:06:27.780Z,208
2017-10-24T08:07:08.235Z,204
2017-10-24T08:07:48.697Z,204
2017-10-24T08:08:29.144Z,208
2017-10-24T08:09:09.610Z,200
2017-10-24T08:09:50.052Z,196
2017-10-24T08:10:30.508Z,192
2017-10-24T08:11:10.961Z,196
2017-10-24T08:11:51.416Z,204
2017-10-24T08:12:31.896Z,208
2017-10-24T08:13:12.385Z,224
2017-10-24T08:13:52.841Z,236
2017-10-24T08:14:33.286Z,260
2017-10-24T08:15:13.744Z,260
2017-10-24T08:15:54.197Z,256
2017-10-24T08:16:34.642Z,256
2017-10-24T08:17:15.092Z,288
2017-10-24T08:17:55.549Z,324
2017-10-24T08:18:35.999Z,324
2017-10-24T08:19:16.455Z,316
2017-10-24T08:19:56.933Z,312
2017-10-24T08:20:37.367Z,328
2017-10-24T08:21:17.813Z,340
2017-10-24T08:21:58.272Z,356
2017-10-24T08:22:38.725Z,360
2017-10-24T08:23:19.180Z,356
2017-10-24T08:23:59.636Z,352
2017-10-24T08:24:40.088Z,352
2017-10-24T08:25:20.541Z,380
2017-10-24T08:26:00.995Z,388
2017-10-24T08:26:41.443Z,424
2017-10-24T08:27:21.904Z,452
2017-10-24T08:28:02.353Z,456
2017-10-24T08:28:42.805Z,468
2017-10-24T08:29:23.258Z,484
2017-10-24T08:30:03.714Z,520
2017-10-24T08:30:44.163Z,564
2017-10-24T08:31:24.621Z,596
2017-10-24T08:32:05.079Z,604
2017-10-24T08:32:45.523Z,576
2017-10-24T08:33:25.974Z,540
2017-10-24T08:34:06.416Z,536
2017-10-24T08:34:47.371Z,532
2017-10-24T08:35:28.080Z,548
2017-10-24T08:36:08.530Z,640
2017-10-24T08:36:49.010Z,792
2017-10-24T08:37:29.462Z,932
2017-10-24T08:38:09.897Z,1200
2017-10-24T08:38:50.360Z,1440
2017-10-24T08:39:30.882Z,1904
2017-10-24T08:40:11.324Z,2468
2017-10-24T08:40:51.791Z,2864
2017-10-24T08:41:32.244Z,3672
2017-10-24T08:42:12.681Z,4688
2017-10-24T08:42:53.135Z,3752
2017-10-24T08:43:33.591Z,2812
2017-10-24T08:44:14.046Z,3060
2017-10-24T08:44:54.500Z,2244
2017-10-24T08:45:34.949Z,1788
2017-10-24T08:46:15.405Z,1848
2017-10-24T08:46:55.869Z,1300
2017-10-24T08:47:36.318Z,1396
2017-10-24T08:48:16.776Z,1372
2017-10-24T08:48:57.229Z,1168
2017-10-24T08:49:37.672Z,1128
2017-10-24T08:50:18.119Z,1252
2017-10-24T08:50:58.581Z,1224
2017-10-24T08:51:39.039Z,1124
2017-10-24T08:52:19.486Z,1172
2017-10-24T08:52:59.947Z,1512
2017-10-24T08:53:40.406Z,2204
2017-10-24T08:54:20.863Z,2384
2017-10-24T08:55:01.310Z,2716
2017-10-24T08:55:41.888Z,1964
2017-10-24T08:56:22.339Z,1888
2017-10-24T08:57:02.802Z,1804
2017-10-24T08:57:43.257Z,2208
2017-10-24T08:58:23.728Z,3760
2017-10-24T08:59:04.173Z,1824
2017-10-24T08:59:44.614Z,2880
2017-10-24T09:01:42.323Z,2416
2017-10-24T09:02:22.775Z,1884
2017-10-24T09:03:03.233Z,1588
2017-10-24T09:03:43.691Z,976
2017-10-24T09:04:24.136Z,1052
2017-10-24T09:05:04.597Z,1036
2017-10-24T09:05:45.046Z,824
2017-10-24T09:06:25.502Z,772
2017-10-24T09:07:05.955Z,736
2017-10-24T09:07:46.411Z,628
2017-10-24T09:08:26.865Z,596
2017-10-24T09:09:07.311Z,620
2017-10-24T09:09:47.785Z,588
2017-10-24T09:10:28.223Z,524
2017-10-24T09:11:08.682Z,536
2017-10-24T09:11:49.125Z,588
2017-10-24T09:12:29.577Z,608
2017-10-24T09:13:10.029Z,688
2017-10-24T09:13:50.486Z,816
2017-10-24T09:14:30.904Z,1080
2017-10-24T09:15:11.369Z,1152
2017-10-24T09:15:51.808Z,1344
2017-10-24T09:16:32.257Z,1268
2017-10-24T09:17:12.706Z,1216
2017-10-24T09:17:53.143Z,1476
2017-10-24T09:18:33.609Z,1840
2017-10-24T09:19:14.080Z,2160
2017-10-24T09:19:54.523Z,2576
2017-10-24T09:20:34.972Z,3016
2017-10-24T09:21:15.424Z,2964
2017-10-24T09:21:55.872Z,4240
2017-10-24T09:22:36.325Z,3356
2017-10-24T09:23:16.772Z,2660
2017-10-24T09:23:57.225Z,2504
2017-10-24T09:24:37.666Z,2772
2017-10-24T09:25:18.127Z,2808
2017-10-24T09:25:58.581Z,2424
2017-10-24T09:26:39.035Z,2376
2017-10-24T09:27:19.478Z,2300
2017-10-24T09:27:59.924Z,2536
2017-10-24T09:28:40.368Z,2652
2017-10-24T09:29:20.830Z,2668
2017-10-24T09:30:01.295Z,2788
2017-10-24T09:30:41.742Z,2868
2017-10-24T09:31:22.201Z,2620
2017-10-24T09:32:02.857Z,2176
2017-10-24T09:32:43.322Z,1988
2017-10-24T09:33:23.772Z,1548
2017-10-24T09:34:04.292Z,1204
2017-10-24T09:34:44.824Z,852
2017-10-24T09:35:25.293Z,760
2017-10-24T09:36:05.751Z,700
2017-10-24T09:36:46.166Z,776
2017-10-24T09:37:26.619Z,1104
2017-10-24T09:38:07.056Z,1436
2017-10-24T09:38:47.595Z,2360
2017-10-24T09:39:28.059Z,2452
2017-10-24T09:40:08.505Z,2364
2017-10-24T09:40:48.962Z,2852
2017-10-24T09:41:29.363Z,2836
2017-10-24T09:42:09.799Z,2668
2017-10-24T09:42:50.217Z,2488
2017-10-24T09:43:30.641Z,2400
2017-10-24T09:44:11.022Z,2352
2017-10-24T09:44:51.477Z,2244
2017-10-24T09:45:31.898Z,2384
2017-10-24T09:46:12.321Z,2416
2017-10-24T09:46:52.735Z,1496
2017-10-24T09:47:33.164Z,864
2017-10-24T09:48:13.613Z,640